createdAt,value
2018-06-11T00:01:03.949Z,80.98
2018-06-11T00:02:14.024Z,81.17
2018-06-11T00:03:24.096Z,81.07
2018-06-11T00:04:34.166Z,81.17
2018-06-11T00:05:44.232Z,81.27
2018-06-11T00:06:54.318Z,81.27
2018-06-11T00:08:04.389Z,81.17
2018-06-11T00:09:14.450Z,81.27
2018-06-11T00:10:24.540Z,81.27
2018-06-11T00:11:34.635Z,81.17
2018-06-11T00:12:44.717Z,81.27
2018-06-11T00:13:54.791Z,81.07
2018-06-11T00:15:04.893Z,81.17
2018-06-11T00:16:14.737Z,81.17
2018-06-11T00:17:24.556Z,81.17
2018-06-11T00:18:34.401Z,81.27
2018-06-11T00:19:44.229Z,81.27
2018-06-11T00:20:54.321Z,81.46
2018-06-11T00:22:04.127Z,81.07
2018-06-11T00:23:14.212Z,81.27
2018-06-11T00:24:24.289Z,81.27
2018-06-11T00:25:34.106Z,81.27
2018-06-11T00:26:43.935Z,81.07
2018-06-11T00:27:54.013Z,81.23
2018-06-11T00:29:04.089Z,81.13
2018-06-11T00:30:14.155Z,81.04
2018-06-11T00:31:24.278Z,81.04
2018-06-11T00:32:34.122Z,81.13
2018-06-11T00:33:43.958Z,81.04
2018-06-11T00:34:53.505Z,81.23
2018-06-11T00:36:03.597Z,81.32
2018-06-11T00:37:13.699Z,81.23
2018-06-11T00:38:23.791Z,81.23
2018-06-11T00:39:33.854Z,81.04
2018-06-11T00:40:43.657Z,81.23
2018-06-11T00:41:53.467Z,81.13
2018-06-11T00:43:03.304Z,81.13
2018-06-11T00:44:13.392Z,81.04
2018-06-11T00:45:23.199Z,81.32
2018-06-11T00:46:33.266Z,81.23
2018-06-11T00:47:43.338Z,81.23
2018-06-11T00:48:53.157Z,81.52
2018-06-11T00:50:03.233Z,81.32
2018-06-11T00:51:13.301Z,81.32
2018-06-11T00:52:23.124Z,81.42
2018-06-11T00:53:33.196Z,80.94
2018-06-11T00:54:43.061Z,80.94
2018-06-11T00:55:52.876Z,80.94
2018-06-11T00:57:02.704Z,81.04
2018-06-11T00:58:12.518Z,81.23
2018-06-11T00:59:22.071Z,81.32
2018-06-11T01:00:32.125Z,81.52
2018-06-11T01:01:42.207Z,81.32
2018-06-11T01:02:52.036Z,81.32
2018-06-11T01:04:02.109Z,81.04
2018-06-11T01:05:11.913Z,81.23
2018-06-11T01:06:21.983Z,81.04
2018-06-11T01:07:31.535Z,81.04
2018-06-11T01:08:41.611Z,81.04
2018-06-11T01:09:51.688Z,81.04
2018-06-11T01:11:01.759Z,81.52
2018-06-11T01:12:11.586Z,81.19
2018-06-11T01:13:21.672Z,81.38
2018-06-11T01:14:31.479Z,81.57
2018-06-11T01:15:41.564Z,81.67
2018-06-11T01:16:51.375Z,81.67
2018-06-11T01:18:01.490Z,81.57
2018-06-11T01:19:11.578Z,81.77
2018-06-11T01:20:21.723Z,81.09
2018-06-11T01:21:31.808Z,81.67
2018-06-11T01:22:41.879Z,81.77
2018-06-11T01:23:51.973Z,81.67
2018-06-11T01:25:02.042Z,81.77
2018-06-11T01:26:12.137Z,81.67
2018-06-11T01:27:21.955Z,81.67
2018-06-11T01:28:32.024Z,81.19
2018-06-11T01:29:41.633Z,81.38
2018-06-11T01:30:51.172Z,80.99
2018-06-11T01:32:00.969Z,81.19
2018-06-11T01:33:11.051Z,81.09
2018-06-11T01:34:21.136Z,81.38
2018-06-11T01:35:31.210Z,81.29
2018-06-11T01:36:41.280Z,81.29
2018-06-11T01:37:51.344Z,81.29
2018-06-11T01:39:01.425Z,81.29
2018-06-11T01:40:11.505Z,81.19
2018-06-11T01:41:21.601Z,81.19
2018-06-11T01:42:31.673Z,81.29
2018-06-11T01:43:41.735Z,81.19
2018-06-11T01:44:51.828Z,81.29
2018-06-11T01:46:01.893Z,81.09
2018-06-11T01:47:12.024Z,81.87
2018-06-11T01:48:21.830Z,81.09
2018-06-11T01:49:31.897Z,81.67
2018-06-11T01:50:41.439Z,81.38
2018-06-11T01:51:50.981Z,81.77
2018-06-11T01:53:00.795Z,81.87
2018-06-11T01:54:10.874Z,81.87
2018-06-11T01:55:20.930Z,81.09
2018-06-11T01:56:30.223Z,81.67
2018-06-11T01:57:40.277Z,81.67
2018-06-11T01:58:49.822Z,81.67
2018-06-11T01:59:59.882Z,81.38
2018-06-11T02:01:09.980Z,81.38
2018-06-11T02:02:20.050Z,81.38
2018-06-11T02:03:30.139Z,81.09
2018-06-11T02:04:40.215Z,81.67
2018-06-11T02:05:50.292Z,81.19
2018-06-11T02:06:59.850Z,81.38
2018-06-11T02:08:09.682Z,81.57
2018-06-11T02:09:19.764Z,81.63
2018-06-11T02:10:29.830Z,81.44
2018-06-11T02:11:39.627Z,81.63
2018-06-11T02:12:49.720Z,81.63
2018-06-11T02:13:59.785Z,81.63
2018-06-11T02:15:09.860Z,81.73
2018-06-11T02:16:19.711Z,81.34
2018-06-11T02:17:29.785Z,81.15
2018-06-11T02:18:39.859Z,81.44
2018-06-11T02:19:49.400Z,81.15
2018-06-11T02:20:59.479Z,81.05
2018-06-11T02:22:09.325Z,81.34
2018-06-11T02:23:19.403Z,81.63
2018-06-11T02:24:29.476Z,81.44
2018-06-11T02:25:39.560Z,81.53
2018-06-11T02:26:49.370Z,81.63
2018-06-11T02:27:59.450Z,81.63
2018-06-11T02:29:09.513Z,81.15
2018-06-11T02:30:19.604Z,81.34
2018-06-11T02:31:29.710Z,81.53
2018-06-11T02:32:39.526Z,81.24
2018-06-11T02:33:49.604Z,81.15
2018-06-11T02:34:59.677Z,81.05
2018-06-11T02:36:09.763Z,81.63
2018-06-11T02:37:19.881Z,81.63
2018-06-11T02:38:29.951Z,81.63
2018-06-11T02:39:40.014Z,81.63
2018-06-11T02:40:49.841Z,81.53
2018-06-11T02:41:59.667Z,81.53
2018-06-11T02:43:09.758Z,81.63
2018-06-11T02:44:19.834Z,81.63
2018-06-11T02:45:29.916Z,81.38
2018-06-11T02:46:39.999Z,81.57
2018-06-11T02:47:50.070Z,81.09
2018-06-11T02:49:00.157Z,81.19
2018-06-11T02:50:10.230Z,81.48
2018-06-11T02:51:20.317Z,81.15
2018-06-11T02:52:30.405Z,81.09
2018-06-11T02:53:40.223Z,81.38
2018-06-11T02:54:49.781Z,81.19
2018-06-11T02:55:59.862Z,81.09
2018-06-11T02:57:09.945Z,81.15
2018-06-11T02:58:19.768Z,80.95
2018-06-11T02:59:29.848Z,81.05
2018-06-11T03:00:39.917Z,81.34
2018-06-11T03:01:50.011Z,81.24
2018-06-11T03:02:59.816Z,80.99
2018-06-11T03:35:01.303Z,75.62
2018-06-11T03:36:11.360Z,75.82
2018-06-11T03:37:21.426Z,76.01
2018-06-11T03:38:31.216Z,76.5
2018-06-11T03:39:41.022Z,77.75
2018-06-11T03:40:51.119Z,78.03
2018-06-11T03:42:01.180Z,78.94
2018-06-11T03:43:11.255Z,78.85
2018-06-11T03:44:21.337Z,79.04
2018-06-11T03:45:31.420Z,79.52
2018-06-11T03:46:41.531Z,79.85
2018-06-11T03:47:51.621Z,79.66
2018-06-11T03:49:01.432Z,78.99
2018-06-11T03:50:11.251Z,79.8
2018-06-11T03:51:21.069Z,79.8
2018-06-11T03:52:31.139Z,79.8
2018-06-11T03:53:40.687Z,79.99
2018-06-11T03:54:50.759Z,79.83
2018-06-11T03:56:00.840Z,79.74
2018-06-11T03:57:10.923Z,80.03
2018-06-11T03:58:21.040Z,80.26
2018-06-11T03:59:31.113Z,79.87
2018-06-11T04:00:41.244Z,79.97
2018-06-11T04:01:51.450Z,79.82
2018-06-11T04:03:01.522Z,79.14
2018-06-11T04:04:11.587Z,79.72
2018-06-11T04:05:21.686Z,79.62
2018-06-11T04:06:31.764Z,79.76
2018-06-11T04:07:41.563Z,79.76
2018-06-11T04:08:51.640Z,80.05
2018-06-11T04:10:01.767Z,79.85
2018-06-11T04:11:11.994Z,79.7
2018-06-11T04:12:21.929Z,79.41
2018-06-11T04:13:31.764Z,79.6
2018-06-11T04:14:41.837Z,79.9
2018-06-11T04:15:51.645Z,79.9
2018-06-11T04:17:01.456Z,79.74
2018-06-11T04:18:11.532Z,78.97
2018-06-11T04:19:21.598Z,76.81
2018-06-11T04:20:31.768Z,74.05
2018-06-11T04:21:41.573Z,73.12
2018-06-11T04:22:51.116Z,72.22
2018-06-11T04:24:00.926Z,71.45
2018-06-11T04:25:10.998Z,71.12
2018-06-11T04:26:20.819Z,70.77
2018-06-11T04:27:30.641Z,70.54
2018-06-11T04:28:40.711Z,70.48
2018-06-11T04:29:50.786Z,70.81
2018-06-11T04:31:00.870Z,70.94
2018-06-11T04:32:10.956Z,70.52
2018-06-11T04:33:21.042Z,70.16
2018-06-11T04:34:30.858Z,70.49
2018-06-11T04:35:40.667Z,70.13
2018-06-11T04:36:50.595Z,70.17
2018-06-11T04:38:00.690Z,70.2
2018-06-11T04:39:10.830Z,70.59
2018-06-11T04:40:20.920Z,70.43
2018-06-11T04:41:30.473Z,71.19
2018-06-11T04:42:40.580Z,70.89
2018-06-11T04:43:50.681Z,71.12
2018-06-11T04:45:00.761Z,71.02
2018-06-11T04:46:10.850Z,70.86
2018-06-11T04:47:20.924Z,71.09
2018-06-11T04:48:31.001Z,70.89
2018-06-11T04:49:40.829Z,70.79
2018-06-11T04:50:50.945Z,71.09
2018-06-11T04:52:01.013Z,70.93
2018-06-11T04:53:10.840Z,70.93
2018-06-11T04:54:20.932Z,70.17
2018-06-11T04:55:31.000Z,70.5
2018-06-11T04:56:41.084Z,70.5
2018-06-11T04:57:51.162Z,70.34
2018-06-11T04:59:00.721Z,70.14
2018-06-11T05:00:10.818Z,70.44
2018-06-11T05:01:20.912Z,70.37
2018-06-11T05:02:31.052Z,69.98
2018-06-11T05:03:40.615Z,69.68
2018-06-11T05:04:50.436Z,69.62
2018-06-11T05:06:00.259Z,69.92
2018-06-11T05:07:10.341Z,69.82
2018-06-11T05:08:19.949Z,69.82
2018-06-11T05:09:29.773Z,69.75
2018-06-11T05:10:39.656Z,70.25
2018-06-11T05:11:49.496Z,69.95
2018-06-11T05:12:59.575Z,69.85
2018-06-11T05:14:09.655Z,69.65
2018-06-11T05:15:19.479Z,69.19
2018-06-11T05:16:29.308Z,69.19
2018-06-11T05:17:39.386Z,69.23
2018-06-11T05:18:49.459Z,69.29
2018-06-11T05:19:59.548Z,69.42
2018-06-11T05:21:09.497Z,69.42
2018-06-11T05:22:19.337Z,69.62
2018-06-11T05:23:29.431Z,69.42
2018-06-11T05:24:39.531Z,69.59
2018-06-11T05:25:49.611Z,70.18
2018-06-11T05:26:59.429Z,69.75
2018-06-11T05:28:09.267Z,70.25
2018-06-11T05:29:19.098Z,70.04
2018-06-11T05:30:29.190Z,69.95
2018-06-11T05:31:39.276Z,69.16
2018-06-11T05:32:49.096Z,69.59
2018-06-11T05:33:58.905Z,69.59
2018-06-11T05:35:09.008Z,69.42
2018-06-11T05:36:19.093Z,69.52
2018-06-11T05:37:29.171Z,69.12
2018-06-11T05:38:39.251Z,69.32
2018-06-11T05:39:49.073Z,69.32
2018-06-11T05:40:58.904Z,69.26
2018-06-11T05:42:08.997Z,69.65
2018-06-11T05:43:18.815Z,69.26
2018-06-11T05:44:28.904Z,69.35
2018-06-11T05:45:38.457Z,69.52
2018-06-11T05:46:48.010Z,69.12
2018-06-11T05:47:58.230Z,70.01
2018-06-11T05:49:08.506Z,69.89
2018-06-11T05:50:18.590Z,70.18
2018-06-11T05:51:28.670Z,70.44
2018-06-11T05:52:38.526Z,70.25
2018-06-11T05:53:48.593Z,70.25
2018-06-11T05:54:58.672Z,70.34
2018-06-11T05:56:08.507Z,70.31
2018-06-11T05:57:18.596Z,70.51
2018-06-11T05:58:28.157Z,70.87
2018-06-11T05:59:38.218Z,70.57
2018-06-11T06:00:48.295Z,70.54
2018-06-11T06:01:58.380Z,70.83
2018-06-11T06:03:08.202Z,71.13
2018-06-11T06:04:18.285Z,71.16
2018-06-11T06:05:28.118Z,71.26
2018-06-11T06:06:38.217Z,71.36
2018-06-11T06:07:48.030Z,71.95
2018-06-11T06:08:58.118Z,71.42
2018-06-11T06:10:08.207Z,71.62
2018-06-11T06:11:18.046Z,71.91
2018-06-11T06:12:28.126Z,72.17
2018-06-11T06:13:38.217Z,72.08
2018-06-11T06:14:48.300Z,72.17
2018-06-11T06:15:58.113Z,72.17
2018-06-11T06:17:07.669Z,72.17
2018-06-11T06:18:17.769Z,71.88
2018-06-11T06:19:27.838Z,72.14
2018-06-11T06:20:37.978Z,72.6
2018-06-11T06:21:48.050Z,72.3
2018-06-11T06:22:58.129Z,72.69
2018-06-11T06:24:07.935Z,72.3
2018-06-11T06:25:18.026Z,72.3
2018-06-11T06:26:28.097Z,72.86
2018-06-11T06:27:38.175Z,73.35
2018-06-11T06:28:48.267Z,73.31
2018-06-11T06:29:58.357Z,73.02
2018-06-11T06:31:08.204Z,73.02
2018-06-11T06:32:18.327Z,73.31
2018-06-11T06:33:28.382Z,74
2018-06-11T06:34:38.718Z,73.77
2018-06-11T06:35:48.856Z,73.47
2018-06-11T06:36:58.941Z,73.61
2018-06-11T06:38:09.016Z,74.1
2018-06-11T06:39:19.120Z,73.8
2018-06-11T06:40:29.291Z,73.71
2018-06-11T06:41:39.591Z,73.86
2018-06-11T06:42:49.683Z,74.26
2018-06-11T06:43:59.754Z,74.16
2018-06-11T06:45:09.319Z,73.86
2018-06-11T06:46:19.140Z,74.26
2018-06-11T06:47:29.211Z,74.26
2018-06-11T06:48:39.302Z,74.62
2018-06-11T06:49:49.393Z,75.01
2018-06-11T06:50:59.476Z,74.68
2018-06-11T06:52:09.592Z,74.58
2018-06-11T06:53:19.410Z,75.07
2018-06-11T06:54:29.237Z,75.26
2018-06-11T06:55:38.805Z,75.33
2018-06-11T06:56:48.666Z,75.33
2018-06-11T06:57:58.493Z,75.62
2018-06-11T06:59:08.608Z,76.07
2018-06-11T07:00:18.690Z,75.88
2018-06-11T07:01:28.833Z,75.88
2018-06-11T07:02:38.913Z,76.23
2018-06-11T07:03:48.997Z,76.14
2018-06-11T07:04:58.820Z,75.84
2018-06-11T07:06:08.649Z,75.94
2018-06-11T07:07:18.747Z,76.39
2018-06-11T07:08:28.827Z,76.29
2018-06-11T07:09:38.940Z,76.98
2018-06-11T07:10:49.068Z,76.68
2018-06-11T07:11:59.160Z,76.68
2018-06-11T07:13:09.333Z,76.78
2018-06-11T07:14:18.880Z,76.84
2018-06-11T07:15:28.961Z,77.04
2018-06-11T07:16:39.052Z,77.39
2018-06-11T07:17:49.155Z,77.2
2018-06-11T07:18:58.975Z,77.29
2018-06-11T07:20:09.086Z,77.2
2018-06-11T07:21:19.369Z,77.1
2018-06-11T07:22:29.460Z,77
2018-06-11T07:23:39.563Z,77
2018-06-11T07:24:49.648Z,77.16
2018-06-11T07:25:59.712Z,77.16
2018-06-11T07:27:09.844Z,77.16
2018-06-11T07:28:19.815Z,77.16
2018-06-11T07:29:29.906Z,77.16
2018-06-11T07:30:39.779Z,76.97
2018-06-11T07:31:49.614Z,77.26
2018-06-11T07:32:59.693Z,77.06
2018-06-11T07:34:09.783Z,77.36
2018-06-11T07:35:19.870Z,77.36
2018-06-11T07:36:29.694Z,77.12
2018-06-11T07:37:39.786Z,77.51
2018-06-11T07:38:49.595Z,77.42
2018-06-11T07:39:59.419Z,77.51
2018-06-11T07:41:09.274Z,77.71
2018-06-11T07:42:19.351Z,77.12
2018-06-11T07:43:29.157Z,77.12
2018-06-11T07:44:39.233Z,77.26
2018-06-11T07:45:49.326Z,77.45
2018-06-11T07:46:59.408Z,76.97
2018-06-11T07:48:09.706Z,77.06
2018-06-11T07:49:19.813Z,77.16
2018-06-11T07:50:29.894Z,77.39
2018-06-11T07:51:40.030Z,77.1
2018-06-11T07:52:50.290Z,77.39
2018-06-11T07:54:00.427Z,77.26
2018-06-11T07:55:10.512Z,76.87
2018-06-11T07:56:20.571Z,77.06
2018-06-11T07:57:30.444Z,77.06
2018-06-11T07:58:40.519Z,77.1
2018-06-11T07:59:50.612Z,77.26
2018-06-11T08:01:00.559Z,76.9
2018-06-11T08:02:10.377Z,77.2
2018-06-11T08:03:20.473Z,76.9
2018-06-11T08:04:30.564Z,77
2018-06-11T08:05:40.706Z,77
2018-06-11T08:06:50.777Z,77.1
2018-06-11T08:08:00.850Z,77.1
2018-06-11T08:09:10.675Z,77.2
2018-06-11T08:10:20.496Z,77.43
2018-06-11T08:11:30.375Z,77.14
2018-06-11T08:12:40.456Z,77.33
2018-06-11T08:13:50.562Z,76.94
2018-06-11T08:15:00.644Z,77.14
2018-06-11T08:16:10.756Z,77.43
2018-06-11T08:17:20.845Z,76.94
2018-06-11T08:18:30.645Z,77.43
2018-06-11T08:19:40.731Z,77.14
2018-06-11T08:20:50.575Z,77.33
2018-06-11T08:22:00.308Z,77.14
2018-06-11T08:23:10.422Z,77.33
2018-06-11T08:24:20.508Z,76.98
2018-06-11T08:25:30.329Z,77.27
2018-06-11T08:26:40.405Z,76.98
2018-06-11T08:27:50.484Z,77.08
2018-06-11T08:29:00.364Z,77.08
2018-06-11T08:30:10.446Z,77.17
2018-06-11T08:31:20.258Z,76.88
2018-06-11T08:32:30.380Z,76.68
2018-06-11T08:33:40.489Z,76.98
2018-06-11T08:34:50.754Z,76.88
2018-06-11T08:36:00.845Z,76.82
2018-06-11T08:37:10.916Z,77.01
2018-06-11T08:38:21.008Z,77.01
2018-06-11T08:39:31.094Z,77.01
2018-06-11T08:40:40.971Z,77.22
2018-06-11T08:41:51.069Z,76.66
2018-06-11T08:43:01.157Z,77.06
2018-06-11T08:44:11.055Z,76.76
2018-06-11T08:45:21.148Z,77.06
2018-06-11T08:46:31.231Z,76.96
2018-06-11T08:47:41.053Z,77.06
2018-06-11T08:48:50.879Z,77.06
2018-06-11T08:50:00.489Z,76.86
2018-06-11T08:51:10.793Z,76.76
2018-06-11T08:52:20.911Z,76.76
2018-06-11T08:53:31.005Z,76.76
2018-06-11T08:54:40.596Z,76.86
2018-06-11T08:55:50.674Z,76.96
2018-06-11T08:57:00.501Z,76.86
2018-06-11T08:58:10.590Z,77.06
2018-06-11T08:59:20.399Z,76.86
2018-06-11T09:00:30.227Z,76.96
2018-06-11T09:01:40.061Z,77.09
2018-06-11T09:02:49.889Z,77
2018-06-11T09:03:59.764Z,76.8
2018-06-11T09:05:09.855Z,77
2018-06-11T09:06:19.684Z,76.7
2018-06-11T09:07:29.777Z,77
2018-06-11T09:08:39.869Z,77.09
2018-06-11T09:09:49.945Z,77.09
2018-06-11T09:11:00.036Z,76.9
2018-06-11T09:12:10.157Z,77.19
2018-06-11T09:13:19.982Z,77.09
2018-06-11T09:14:29.789Z,76.8
2018-06-11T09:15:39.929Z,76.9
2018-06-11T09:16:49.759Z,76.9
2018-06-11T09:18:00.102Z,77
2018-06-11T09:19:10.870Z,76.9
2018-06-11T09:20:20.955Z,76.8
2018-06-11T09:21:31.033Z,77.09
2018-06-11T09:22:41.133Z,76.84
2018-06-11T09:23:51.220Z,77.13
2018-06-11T09:25:01.390Z,76.64
2018-06-11T09:26:11.310Z,76.84
2018-06-11T09:27:21.377Z,76.74
2018-06-11T09:28:31.453Z,76.25
2018-06-11T09:29:41.285Z,76.34
2018-06-11T09:30:51.108Z,76.15
2018-06-11T09:32:01.248Z,76.28
2018-06-11T09:33:11.347Z,76.18
2018-06-11T09:34:21.427Z,75.99
2018-06-11T09:35:31.248Z,76.03
2018-06-11T09:36:41.339Z,75.67
2018-06-11T09:37:51.409Z,75.48
2018-06-11T09:39:01.508Z,75.48
2018-06-11T09:40:11.615Z,75.51
2018-06-11T09:41:21.433Z,75.51
2018-06-11T09:42:31.260Z,75.31
2018-06-11T09:43:41.369Z,75.51
2018-06-11T09:44:51.746Z,75.45
2018-06-11T09:46:01.836Z,75.45
2018-06-11T09:47:11.387Z,75.45
2018-06-11T09:48:21.311Z,75.25
2018-06-11T09:49:31.400Z,75.25
2018-06-11T09:50:41.218Z,75.25
2018-06-11T09:51:51.310Z,75.65
2018-06-11T09:53:01.412Z,75.35
2018-06-11T09:54:11.229Z,75.15
2018-06-11T09:55:21.307Z,75.35
2018-06-11T09:56:31.397Z,76.04
2018-06-11T09:57:41.226Z,75.84
2018-06-11T09:58:51.025Z,75.84
2018-06-11T10:00:01.129Z,75.94
2018-06-11T10:01:11.224Z,75.74
2018-06-11T10:02:21.312Z,75.74
2018-06-11T10:03:31.414Z,75.94
2018-06-11T10:04:41.360Z,75.98
2018-06-11T10:05:50.918Z,75.84
2018-06-11T10:07:00.741Z,75.29
2018-06-11T10:08:10.813Z,75.59
2018-06-11T10:09:20.899Z,75.42
2018-06-11T10:10:30.765Z,75.62
2018-06-11T10:11:40.859Z,75.42
2018-06-11T10:12:50.696Z,75.32
2018-06-11T10:14:00.785Z,75.92
2018-06-11T10:15:10.875Z,75.82
2018-06-11T10:16:20.710Z,75.82
2018-06-11T10:17:30.536Z,75.92
2018-06-11T10:18:40.626Z,76.51
2018-06-11T10:19:50.693Z,76.41
2018-06-11T10:21:00.511Z,76.31
2018-06-11T10:22:10.613Z,76.41
2018-06-11T10:23:20.698Z,76.41
2018-06-11T10:24:30.891Z,76.61
2018-06-11T10:25:40.987Z,76.31
2018-06-11T10:26:51.106Z,76.61
2018-06-11T10:28:01.197Z,76.8
2018-06-11T10:29:11.361Z,76.76
2018-06-11T10:30:21.463Z,76.01
2018-06-11T10:31:31.293Z,76.31
2018-06-11T10:32:40.875Z,76.01
2018-06-11T10:33:50.956Z,76.41
2018-06-11T10:35:01.148Z,76.51
2018-06-11T10:36:10.979Z,76.47
2018-06-11T10:37:20.807Z,76.21
2018-06-11T10:38:30.663Z,76.41
2018-06-11T10:39:40.520Z,75.92
2018-06-11T10:40:51.125Z,75.36
2018-06-11T10:42:01.825Z,75.56
2018-06-11T10:43:12.671Z,75.36
2018-06-11T10:44:23.146Z,75.3
2018-06-11T10:45:33.629Z,74.8
2018-06-11T10:46:44.643Z,75.43
2018-06-11T10:47:55.071Z,75.63
2018-06-11T10:49:05.174Z,75.53
2018-06-11T10:50:15.011Z,74.88
2018-06-11T10:51:25.121Z,74.68
2018-06-11T10:52:35.291Z,75.37
2018-06-11T10:53:45.373Z,75.37
2018-06-11T10:54:55.489Z,75.37
2018-06-11T10:56:05.628Z,75.27
2018-06-11T10:57:15.974Z,75.47
2018-06-11T10:58:26.114Z,75.77
2018-06-11T10:59:36.201Z,74.98
2018-06-11T11:00:46.313Z,75.67
2018-06-11T11:01:56.160Z,74.72
2018-06-11T11:03:06.274Z,75.11
2018-06-11T11:04:16.361Z,75.24
2018-06-11T11:05:26.201Z,74.76
2018-06-11T11:06:36.297Z,74.79
2018-06-11T11:07:46.403Z,74.99
2018-06-11T11:08:57.354Z,74.99
2018-06-11T11:10:07.498Z,74.3
2018-06-11T11:11:17.596Z,74.33
2018-06-11T11:12:27.885Z,74.63
2018-06-11T11:13:37.950Z,74.13
2018-06-11T11:14:48.067Z,73.77
2018-06-11T11:15:58.171Z,73.51
2018-06-11T11:17:08.246Z,72.99
2018-06-11T11:18:17.810Z,72.63
2018-06-11T11:19:27.685Z,72.47
2018-06-11T11:20:37.782Z,72.2
2018-06-11T11:21:47.898Z,72.24
2018-06-11T11:22:57.518Z,71.44
2018-06-11T11:24:07.368Z,71.58
2018-06-11T11:25:17.457Z,71.78
2018-06-11T11:26:27.550Z,71.51
2018-06-11T11:27:37.722Z,71.61
2018-06-11T11:28:47.810Z,71.61
2018-06-11T11:29:57.905Z,71.81
2018-06-11T11:31:07.994Z,72.11
2018-06-11T11:32:18.103Z,72.31
2018-06-11T11:33:28.188Z,72.67
2018-06-11T11:34:38.287Z,72.17
2018-06-11T11:35:48.371Z,72.37
2018-06-11T11:36:58.488Z,72.2
2018-06-11T11:38:08.588Z,72.24
2018-06-11T11:39:18.760Z,72.47
2018-06-11T11:40:28.840Z,73.27
2018-06-11T11:41:38.944Z,73.27
2018-06-11T11:42:49.253Z,73.23
2018-06-11T11:43:59.124Z,73.07
2018-06-11T11:45:09.198Z,73.07
2018-06-11T11:46:18.809Z,72.93
2018-06-11T11:47:28.911Z,72.83
2018-06-11T11:48:38.734Z,72.83
2018-06-11T11:49:48.821Z,72.86
2018-06-11T11:50:58.919Z,73.16
2018-06-11T11:52:09.117Z,73.2
2018-06-11T11:53:18.705Z,73.27
2018-06-11T11:54:28.805Z,73.76
2018-06-11T11:55:38.903Z,74.12
2018-06-11T11:56:48.729Z,74.48
2018-06-11T11:57:58.829Z,74.84
2018-06-11T11:59:08.931Z,75.24
2018-06-11T12:00:19.030Z,75.16
2018-06-11T12:01:29.149Z,75.52
2018-06-11T12:02:39.259Z,75.69
2018-06-11T12:03:49.383Z,76.15
2018-06-11T12:04:59.196Z,75.75
2018-06-11T12:06:09.309Z,75.42
2018-06-11T12:07:19.144Z,75.62
2018-06-11T12:08:29.252Z,76.47
2018-06-11T12:09:39.357Z,75.88
2018-06-11T12:10:49.446Z,75.98
2018-06-11T12:11:59.278Z,75.26
2018-06-11T12:13:09.108Z,74.57
2018-06-11T12:14:19.195Z,75.12
2018-06-11T12:15:29.287Z,75.12
2018-06-11T12:16:39.377Z,75.68
2018-06-11T12:17:49.475Z,75.64
2018-06-11T12:18:59.330Z,75.51
2018-06-11T12:20:09.592Z,76
2018-06-11T12:21:19.479Z,76.35
2018-06-11T12:22:30.009Z,76.46
2018-06-11T12:23:39.892Z,76.52
2018-06-11T12:24:49.996Z,76.32
2018-06-11T12:26:00.083Z,76.58
2018-06-11T12:27:09.926Z,76.78
2018-06-11T12:28:20.011Z,76.54
2018-06-11T12:29:29.849Z,76.64
2018-06-11T12:30:39.713Z,76.7
2018-06-11T12:31:49.550Z,76.61
2018-06-11T12:32:59.639Z,76.21
2018-06-11T12:34:09.715Z,76.41
2018-06-11T12:35:19.831Z,75.66
2018-06-11T12:36:29.681Z,75.14
2018-06-11T12:37:39.523Z,74.62
2018-06-11T12:38:49.635Z,73.18
2018-06-11T12:39:59.740Z,72.85
2018-06-11T12:41:09.625Z,72.22
2018-06-11T12:42:19.481Z,71.86
2018-06-11T12:43:29.579Z,71.2
2018-06-11T12:44:39.149Z,71.87
2018-06-11T12:45:49.236Z,71.01
2018-06-11T12:46:59.064Z,71.01
2018-06-11T12:48:09.170Z,70.85
2018-06-11T12:49:19.013Z,70.78
2018-06-11T12:50:28.900Z,70.81
2018-06-11T12:51:38.728Z,70.52
2018-06-11T12:52:48.916Z,71.05
2018-06-11T12:53:59.171Z,71.15
2018-06-11T12:55:09.324Z,71.41
2018-06-11T12:56:19.555Z,72.01
2018-06-11T12:57:29.517Z,72.67
2018-06-11T12:58:39.636Z,73.13
2018-06-11T12:59:49.465Z,73.91
2018-06-11T13:00:59.565Z,74.77
2018-06-11T13:02:09.411Z,75.29
2018-06-11T13:03:19.540Z,74.86
2018-06-11T13:04:29.643Z,74.8
2018-06-11T13:05:40.000Z,74.7
2018-06-11T13:06:50.133Z,74.6
2018-06-11T13:08:00.250Z,75.1
2018-06-11T13:09:09.845Z,74.8
2018-06-11T13:10:19.947Z,74.57
2018-06-11T13:11:30.090Z,74.57
2018-06-11T13:12:40.212Z,75.16
2018-06-11T13:13:50.321Z,75.62
2018-06-11T13:15:00.198Z,75.92
2018-06-11T13:16:10.309Z,75.58
2018-06-11T13:17:20.403Z,75.68
2018-06-11T13:18:30.516Z,75.81
2018-06-11T13:19:40.637Z,75.15
2018-06-11T13:20:50.452Z,75.38
2018-06-11T13:22:00.589Z,75.28
2018-06-11T13:23:10.909Z,75.35
2018-06-11T13:24:21.004Z,75.54
2018-06-11T13:25:30.860Z,75.81
2018-06-11T13:26:40.704Z,76.06
2018-06-11T13:27:50.813Z,76.46
2018-06-11T13:29:00.647Z,76.56
2018-06-11T13:30:10.742Z,76.52
2018-06-11T13:31:20.849Z,76.12
2018-06-11T13:32:30.941Z,76.06
2018-06-11T13:33:40.870Z,75.57
2018-06-11T13:34:50.982Z,75.34
2018-06-11T13:36:01.091Z,75.77
2018-06-11T13:37:11.071Z,75.57
2018-06-11T13:38:21.216Z,74.98
2018-06-11T13:39:31.313Z,74.88
2018-06-11T13:40:41.409Z,75.27
2018-06-11T13:41:51.501Z,75.18
2018-06-11T13:43:01.587Z,75.47
2018-06-11T13:44:11.712Z,75.47
2018-06-11T13:45:21.312Z,75.47
2018-06-11T13:46:31.148Z,75.67
2018-06-11T13:47:41.230Z,74.88
2018-06-11T13:48:51.360Z,74.88
2018-06-11T13:50:01.464Z,75.01
2018-06-11T13:51:11.656Z,75.01
2018-06-11T13:52:22.008Z,75.11
2018-06-11T13:53:32.118Z,75.21
2018-06-11T13:54:41.949Z,74.72
2018-06-11T13:55:52.044Z,75.11
2018-06-11T13:57:02.333Z,75.21
2018-06-11T13:58:12.515Z,75.21
2018-06-11T13:59:22.603Z,74.52
2018-06-11T14:00:32.442Z,74.91
2018-06-11T14:01:42.590Z,74.52
2018-06-11T14:02:52.721Z,74.62
2018-06-11T14:04:02.817Z,74.65
2018-06-11T14:05:12.919Z,74.46
2018-06-11T14:06:23.020Z,74.55
2018-06-11T14:07:33.113Z,74.55
2018-06-11T14:08:44.277Z,74.16
2018-06-11T14:09:54.357Z,74.4
2018-06-11T14:11:04.189Z,73.74
2018-06-11T14:12:14.044Z,73.64
2018-06-11T14:13:24.380Z,74.04
2018-06-11T14:14:34.213Z,74.07
2018-06-11T14:15:44.088Z,74.07
2018-06-11T14:16:53.391Z,73.91
2018-06-11T14:18:03.492Z,73.81
2018-06-11T14:19:13.614Z,73.47
2018-06-11T14:20:23.899Z,74.27
2018-06-11T14:21:33.736Z,73.97
2018-06-11T14:22:43.847Z,74.66
2018-06-11T14:23:53.936Z,74.63
2018-06-11T14:25:04.047Z,75.12
2018-06-11T14:26:13.882Z,75.22
2018-06-11T14:27:23.978Z,75.09
2018-06-11T14:28:34.142Z,75.48
2018-06-11T14:29:44.184Z,75.54
2018-06-11T14:30:53.733Z,75.45
2018-06-11T14:32:03.844Z,74.91
2018-06-11T14:33:13.963Z,75.41
2018-06-11T14:34:23.528Z,75.7
2018-06-11T14:35:33.368Z,75.81
2018-06-11T14:36:43.481Z,75.6
2018-06-11T14:37:53.350Z,75.77
2018-06-11T14:39:03.481Z,76.16
2018-06-11T14:40:13.307Z,76.35
2018-06-11T14:41:22.930Z,75.77
2018-06-11T14:42:33.033Z,75.57
2018-06-11T14:43:42.894Z,75.57
2018-06-11T14:44:52.969Z,75.67
2018-06-11T14:46:03.118Z,75.57
2018-06-11T14:47:13.204Z,75.34
2018-06-11T14:48:23.034Z,75.93
2018-06-11T14:49:33.195Z,75.93
2018-06-11T14:50:43.028Z,76.12
2018-06-11T14:51:53.117Z,76.52
2018-06-11T14:53:03.221Z,76.39
2018-06-11T14:54:13.329Z,76.03
2018-06-11T14:55:23.480Z,76.48
2018-06-11T14:56:33.567Z,76.39
2018-06-11T14:57:43.418Z,76.68
2018-06-11T14:58:53.269Z,76.64
2018-06-11T15:00:02.847Z,76.68
2018-06-11T15:01:12.955Z,76.54
2018-06-11T15:02:23.070Z,76.45
2018-06-11T15:03:33.156Z,76.45
2018-06-11T15:04:43.032Z,76.64
2018-06-11T15:05:52.869Z,76.54
2018-06-11T15:07:04.073Z,76.41
2018-06-11T15:08:14.156Z,76.51
2018-06-11T15:09:24.141Z,76.7
2018-06-11T15:10:34.492Z,76.11
2018-06-11T15:11:44.337Z,76.11
2018-06-11T15:12:54.438Z,76.51
2018-06-11T15:14:04.269Z,76.61
2018-06-11T15:15:14.363Z,76.31
2018-06-11T15:16:24.480Z,76.11
2018-06-11T15:17:34.302Z,76.31
2018-06-11T15:18:44.420Z,76.21
2018-06-11T15:19:54.506Z,76.31
2018-06-11T15:21:04.077Z,76.41
2018-06-11T15:22:13.920Z,76.61
2018-06-11T15:23:24.029Z,76.31
2018-06-11T15:24:34.126Z,76.41
2018-06-11T15:25:43.973Z,76.01
2018-06-11T15:26:54.080Z,76.51
2018-06-11T15:28:03.912Z,76.31
2018-06-11T15:29:14.086Z,75.95
2018-06-11T15:30:24.342Z,75.85
2018-06-11T15:31:34.460Z,75.85
2018-06-11T15:32:44.579Z,75.82
2018-06-11T15:33:54.699Z,75.95
2018-06-11T15:35:04.854Z,75.85
2018-06-11T15:36:14.692Z,75.85